Sumpter, Illinois
Current Conditions -  °F | °C
As of 1:53 AM on Saturday 22 Nov 2014 (Local Time) from KMTO Reporting Station
Overcast Overcast  
Wind Chill: 29°   Ceiling: 4700
Heat Index: 37°   Visibility: 10mi
Dew Point: 28°   Wind: 13mph
Humidity: 70%   Direction: 170°S
Pressure: 30.19"   Gusts: NA
Location:  39.2896°N, 88.2485°W
Report Text: KMTO 220753Z AUTO 17011KT 10SM FEW016 OVC047 03/M02 A3019 RMK AO2 RAE13 SLP228 P0000 T00281022
Loading
Personal Weather Stations






























Interactive Weather Map New forecast layout! Learn more

10-Day Weather Forecast

Advertisements
Track Severe Weather on mobile